Time;durP1;ratioP1;P1;durP2;ratioP2;P2;SDS_P1;SDS_P2;PMS_P1;PMS_P2;Temp;Humidity;BMP_temperature;BMP_pressure;BME280_temperature;BME280_humidity;BME280_pressure;Samples;Min_cycle;Max_cycle;Signal;HPM_P1;HPM_P2
2021/11/16 00:02:53;;;;;;;84.57;43.97;;;;;;;5.55;88.29;98624.06;6217428;28;20226;-67
2021/11/16 00:05:55;;;;;;;88.83;44.93;;;;;;;5.54;88.67;98624.97;6222944;28;20222;-67
2021/11/16 00:08:57;;;;;;;91.30;46.13;;;;;;;5.55;88.09;98620.59;6223869;28;20193;-67
2021/11/16 00:12:00;;;;;;;93.03;45.90;;;;;;;5.52;88.66;98618.09;6223103;28;20220;-67
2021/11/16 00:15:03;;;;;;;86.80;43.80;;;;;;;5.52;88.63;98612.88;6217472;28;20193;-67
2021/11/16 00:18:06;;;;;;;91.03;46.70;;;;;;;5.51;88.72;98612.00;6216085;28;20303;-71
2021/11/16 00:21:11;;;;;;;83.67;44.53;;;;;;;5.45;88.89;98614.06;6221197;28;20673;-68
2021/11/16 00:24:15;;;;;;;84.10;43.00;;;;;;;5.43;88.16;98616.75;6222865;28;20272;-67
2021/11/16 00:27:17;;;;;;;80.90;42.53;;;;;;;5.45;88.27;98609.69;6222637;28;20715;-67
2021/11/16 00:30:19;;;;;;;88.73;47.83;;;;;;;5.43;88.82;98615.91;6221431;28;20270;-67
2021/11/16 00:33:23;;;;;;;82.47;45.50;;;;;;;5.43;88.36;98618.50;6222083;28;20193;-67
2021/11/16 00:36:25;;;;;;;83.13;44.57;;;;;;;5.44;88.41;98604.50;6223074;28;20222;-68
2021/11/16 00:39:27;;;;;;;80.63;44.20;;;;;;;5.44;88.44;98607.13;6221011;28;20691;-68
2021/11/16 00:42:30;;;;;;;84.33;43.27;;;;;;;5.42;88.54;98601.09;6221829;28;20274;-68
2021/11/16 00:45:32;;;;;;;86.50;46.43;;;;;;;5.38;88.62;98599.56;6212556;28;20371;-69
2021/11/16 00:48:34;;;;;;;83.97;45.47;;;;;;;5.35;88.67;98597.06;6210893;28;20703;-68
2021/11/16 00:51:36;;;;;;;89.87;46.97;;;;;;;5.33;87.66;98599.75;6221834;28;20670;-67
2021/11/16 00:54:40;;;;;;;93.30;48.67;;;;;;;5.33;87.90;98599.75;6222001;28;20268;-67
2021/11/16 00:57:43;;;;;;;87.37;44.77;;;;;;;5.29;88.28;98592.94;6220832;28;20228;-68
2021/11/16 01:00:45;;;;;;;83.40;44.47;;;;;;;5.30;88.16;98594.66;6221764;28;20735;-71
2021/11/16 01:03:47;;;;;;;81.07;44.17;;;;;;;5.31;88.76;98596.34;6222126;28;20726;-67
2021/11/16 01:06:50;;;;;;;84.03;41.57;;;;;;;5.30;88.33;98593.78;6221596;28;20197;-67
2021/11/16 01:09:52;;;;;;;80.23;43.73;;;;;;;5.30;88.21;98591.19;6221623;28;20227;-67
2021/11/16 01:12:54;;;;;;;76.23;43.63;;;;;;;5.28;88.29;98588.66;6221582;28;20224;-68
2021/11/16 01:15:57;;;;;;;70.00;40.33;;;;;;;5.29;88.20;98586.88;6219071;28;20595;-67
2021/11/16 01:19:01;;;;;;;75.03;42.37;;;;;;;5.26;88.58;98579.16;6219941;28;20217;-68
2021/11/16 01:22:03;;;;;;;82.93;43.00;;;;;;;5.23;88.80;98589.75;6221284;28;20195;-68
2021/11/16 01:25:08;;;;;;;71.90;39.03;;;;;;;5.20;88.89;98583.72;6220016;28;20580;-70
2021/11/16 01:28:12;;;;;;;72.50;40.47;;;;;;;5.17;88.15;98578.66;6221388;28;20189;-67
2021/11/16 01:31:15;;;;;;;66.93;38.60;;;;;;;5.16;87.93;98576.09;6221516;28;20207;-67
2021/11/16 01:34:24;;;;;;;62.30;36.73;;;;;;;5.14;88.55;98577.94;6219732;28;20211;-67
2021/11/16 01:37:26;;;;;;;72.67;41.37;;;;;;;5.11;88.78;98578.06;6219762;28;20696;-68
2021/11/16 01:40:29;;;;;;;64.80;37.33;;;;;;;5.05;88.24;98575.72;6220932;28;20188;-68
2021/11/16 01:43:31;;;;;;;68.33;39.07;;;;;;;5.00;88.42;98570.69;6219511;28;20200;-68
2021/11/16 01:46:33;;;;;;;61.10;37.83;;;;;;;4.98;87.77;98569.06;6208649;28;20263;-71
2021/11/16 01:49:36;;;;;;;72.50;40.60;;;;;;;4.98;87.87;98569.06;6219732;28;20319;-67
2021/11/16 01:52:39;;;;;;;73.87;40.77;;;;;;;4.96;88.57;98569.13;6218419;28;20205;-67
2021/11/16 01:55:41;;;;;;;67.43;38.97;;;;;;;4.95;87.58;98577.03;6220766;28;20195;-67
2021/11/16 01:58:43;;;;;;;81.27;43.07;;;;;;;4.94;87.99;98577.94;6219312;28;20692;-67
2021/11/16 02:01:48;;;;;;;78.50;43.90;;;;;;;4.93;88.70;98576.25;6220443;28;20631;-70
2021/11/16 02:04:51;;;;;;;80.77;40.33;;;;;;;4.93;87.79;98569.25;6219070;28;20677;-68
2021/11/16 02:07:53;;;;;;;71.83;39.87;;;;;;;4.93;88.30;98577.09;6218945;28;20583;-68
2021/11/16 02:10:55;;;;;;;73.03;41.33;;;;;;;4.92;88.42;98567.56;6219830;28;20207;-68
2021/11/16 02:13:58;;;;;;;80.57;42.80;;;;;;;4.86;88.35;98562.59;6220374;28;20193;-67
2021/11/16 02:17:00;;;;;;;76.13;42.47;;;;;;;4.79;88.67;98567.22;6201127;28;20201;-68
2021/11/16 02:20:06;;;;;;;75.80;43.20;;;;;;;4.78;88.74;98567.31;6220295;28;20276;-68
2021/11/16 02:23:09;;;;;;;80.03;42.37;;;;;;;4.76;88.05;98566.53;6219780;28;20177;-68
2021/11/16 02:26:12;;;;;;;73.80;41.30;;;;;;;4.75;88.42;98568.28;6202493;28;20299;-67
2021/11/16 02:29:15;;;;;;;68.60;39.17;;;;;;;4.74;88.74;98558.75;6218698;28;20196;-67
2021/11/16 02:32:17;;;;;;;74.93;41.67;;;;;;;4.73;88.42;98554.44;6219405;28;20197;-67
2021/11/16 02:35:22;;;;;;;67.70;36.93;;;;;;;4.70;89.05;98561.53;6219692;28;20311;-67
2021/11/16 02:38:25;;;;;;;70.83;38.97;;;;;;;4.68;88.92;98543.34;6220158;28;20239;-69
2021/11/16 02:41:31;;;;;;;71.47;39.33;;;;;;;4.70;88.53;98540.63;6219441;28;20331;-67
2021/11/16 02:44:33;;;;;;;73.43;40.73;;;;;;;4.73;88.63;98540.50;6217081;28;20239;-68
2021/11/16 02:47:36;;;;;;;77.50;39.50;;;;;;;4.71;89.14;98537.94;6195157;28;20220;-68
2021/11/16 02:50:47;;;;;;;72.67;38.80;;;;;;;4.72;89.11;98542.25;6218341;28;20204;-67
2021/11/16 02:53:50;;;;;;;67.93;37.97;;;;;;;4.75;89.01;98528.22;6219622;28;20196;-67
2021/11/16 02:56:52;;;;;;;81.47;41.30;;;;;;;4.77;88.77;98531.63;6219170;28;20830;-68
2021/11/16 02:59:55;;;;;;;79.17;42.07;;;;;;;4.76;89.23;98538.63;6219407;28;20267;-66
2021/11/16 03:02:58;;;;;;;76.77;39.87;;;;;;;4.76;88.29;98546.47;6218918;28;20200;-67
2021/11/16 03:06:01;;;;;;;68.63;38.83;;;;;;;4.80;89.14;98541.91;6218286;28;20196;-67
2021/11/16 03:09:04;;;;;;;83.97;42.00;;;;;;;4.84;88.79;98543.50;6219407;28;20580;-72
2021/11/16 03:12:07;;;;;;;72.77;38.83;;;;;;;4.86;88.46;98539.06;6217861;28;20207;-67
2021/11/16 03:15:09;;;;;;;72.37;39.93;;;;;;;4.86;88.80;98533.84;6212863;28;20271;-67
2021/11/16 03:18:11;;;;;;;78.70;42.33;;;;;;;4.86;88.62;98536.44;6218027;28;20219;-67
2021/11/16 03:21:15;;;;;;;74.57;39.87;;;;;;;4.85;88.67;98524.28;6218863;28;20192;-68
2021/11/16 03:24:17;;;;;;;70.63;38.70;;;;;;;4.84;89.06;98519.97;6219310;28;20193;-67
2021/11/16 03:27:27;;;;;;;65.80;37.40;;;;;;;4.86;88.22;98531.22;6217714;28;20246;-71
2021/11/16 03:30:30;;;;;;;67.77;39.07;;;;;;;4.86;88.83;98523.38;6218883;28;20222;-68
2021/11/16 03:33:32;;;;;;;62.53;36.33;;;;;;;4.88;88.96;98526.78;6218377;28;20192;-67
2021/11/16 03:36:34;;;;;;;74.67;40.63;;;;;;;4.90;88.64;98531.91;6217658;28;20660;-67
2021/11/16 03:39:37;;;;;;;77.63;40.43;;;;;;;4.89;88.68;98536.28;6219046;28;20279;-68
2021/11/16 03:42:43;;;;;;;65.57;39.23;;;;;;;4.90;88.51;98524.06;6218776;28;20663;-68
2021/11/16 03:45:45;;;;;;;63.50;35.60;;;;;;;4.91;88.47;98518.78;6207347;28;21028;-68
2021/11/16 03:48:47;;;;;;;58.77;35.40;;;;;;;4.92;88.15;98530.94;6214045;28;20197;-69
2021/11/16 03:51:49;;;;;;;67.70;38.93;;;;;;;4.95;88.09;98522.97;6218762;28;20208;-67
2021/11/16 03:54:53;;;;;;;64.17;36.83;;;;;;;4.95;88.55;98525.56;6218901;28;20685;-67
2021/11/16 03:57:56;;;;;;;54.27;33.90;;;;;;;4.98;88.74;98516.75;6218763;28;20288;-68
2021/11/16 04:01:02;;;;;;;65.10;36.50;;;;;;;5.01;88.76;98527.91;6218330;28;20667;-70
2021/11/16 04:04:05;;;;;;;65.97;38.53;;;;;;;5.01;88.38;98527.91;6217682;28;20664;-68
2021/11/16 04:07:07;;;;;;;62.37;37.83;;;;;;;5.02;87.78;98523.53;6218476;28;20719;-67
2021/11/16 04:10:12;;;;;;;58.17;35.67;;;;;;;5.02;87.91;98520.91;6218956;28;20656;-67
2021/11/16 04:13:15;;;;;;;53.00;33.20;;;;;;;5.02;88.38;98513.91;6217282;28;20216;-68
2021/11/16 04:16:17;;;;;;;50.63;30.83;;;;;;;5.01;88.49;98512.22;6204297;28;20201;-67
2021/11/16 04:19:19;;;;;;;64.53;37.33;;;;;;;5.00;88.44;98500.06;6212713;28;20215;-69
2021/11/16 04:22:21;;;;;;;57.50;36.00;;;;;;;4.96;88.04;98495.91;6222676;28;20192;-68
2021/11/16 04:25:24;;;;;;;61.73;36.73;;;;;;;4.92;88.13;98491.72;6222776;28;20195;-67
2021/11/16 04:28:26;;;;;;;51.50;32.37;;;;;;;4.92;88.41;98488.25;6222259;28;20555;-68
2021/11/16 04:31:28;;;;;;;60.43;36.23;;;;;;;4.92;87.76;98488.25;6222453;28;20204;-67
2021/11/16 04:34:31;;;;;;;48.80;30.63;;;;;;;4.93;88.88;98485.56;6222647;28;20193;-68
2021/11/16 04:37:33;;;;;;;52.67;31.37;;;;;;;4.97;88.46;98489.75;6222378;28;20212;-67
2021/11/16 04:40:41;;;;;;;55.57;33.77;;;;;;;5.01;88.52;98487.81;6222292;28;20271;-68
2021/11/16 04:43:43;;;;;;;57.37;34.20;;;;;;;5.03;88.23;98486.00;6222057;28;20207;-67
2021/11/16 04:46:46;;;;;;;48.57;31.63;;;;;;;5.06;87.71;98491.94;6217786;28;20383;-69
2021/11/16 04:49:55;;;;;;;49.60;31.10;;;;;;;5.12;87.76;98494.28;6220953;28;20196;-67
2021/11/16 05:05:37;;;;;;;43.40;29.10;;;;;;;5.34;86.80;98491.53;6221732;28;20192;-68
2021/11/16 05:08:40;;;;;;;46.73;29.43;;;;;;;5.33;86.37;98499.44;6221880;28;20200;-68
2021/11/16 05:11:43;;;;;;;44.00;27.90;;;;;;;5.32;86.12;98503.84;6221136;28;20225;-69
2021/11/16 05:14:45;;;;;;;45.70;28.90;;;;;;;5.28;85.72;98506.69;6219302;28;20205;-67
2021/11/16 05:17:48;;;;;;;36.67;24.40;;;;;;;5.22;86.45;98501.69;6211758;28;20219;-67
2021/11/16 05:20:50;;;;;;;41.73;28.37;;;;;;;5.15;86.33;98496.75;6221297;28;20196;-67
2021/11/16 05:23:58;;;;;;;50.87;31.90;;;;;;;5.07;86.71;98498.88;6221392;28;20326;-67
2021/11/16 05:27:00;;;;;;;49.90;31.70;;;;;;;4.99;85.97;98500.97;6220625;28;20672;-68
2021/11/16 05:30:09;;;;;;;47.93;30.63;;;;;;;4.92;86.94;98496.09;6220869;28;20568;-69
2021/11/16 05:33:12;;;;;;;44.57;28.43;;;;;;;4.88;86.50;98492.78;6220832;28;20256;-67
2021/11/16 05:36:16;;;;;;;46.53;30.17;;;;;;;4.85;87.29;98487.69;6221928;28;20668;-68
2021/11/16 05:39:18;;;;;;;43.07;28.30;;;;;;;4.81;87.04;98502.63;6220713;28;20209;-67
2021/11/16 05:42:21;;;;;;;43.07;28.67;;;;;;;4.74;86.97;98503.84;6220645;28;20571;-67
2021/11/16 05:45:24;;;;;;;46.87;29.87;;;;;;;4.75;87.51;98509.91;6212315;28;20601;-67
2021/11/16 05:48:33;;;;;;;53.53;32.10;;;;;;;4.85;86.85;98507.75;6207311;28;20200;-70
2021/11/16 05:51:36;;;;;;;48.63;30.33;;;;;;;5.00;86.04;98496.59;6219105;28;20669;-68
2021/11/16 05:54:41;;;;;;;43.60;28.80;;;;;;;5.00;86.21;98507.91;6220642;28;20665;-68
2021/11/16 05:57:48;;;;;;;52.03;31.27;;;;;;;5.03;86.78;98502.53;6220574;28;20248;-68
2021/11/16 06:00:51;;;;;;;43.93;27.40;;;;;;;5.03;85.68;98502.53;6219130;28;20173;-68
2021/11/16 06:03:54;;;;;;;42.50;27.07;;;;;;;5.00;85.72;98505.28;6220392;28;20274;-67
2021/11/16 06:06:58;;;;;;;49.43;31.10;;;;;;;4.99;86.33;98505.38;6219174;28;20197;-68
2021/11/16 06:10:00;;;;;;;45.77;30.73;;;;;;;4.97;86.65;98497.59;6218922;28;20189;-68
2021/11/16 06:13:02;;;;;;;45.33;29.27;;;;;;;5.01;86.81;98503.53;6220473;28;20333;-67
2021/11/16 06:16:04;;;;;;;49.67;30.40;;;;;;;5.09;85.82;98509.28;6217833;28;20227;-68
2021/11/16 06:19:08;;;;;;;47.53;29.97;;;;;;;5.07;85.78;98514.56;6218620;28;20233;-68
2021/11/16 06:22:10;;;;;;;43.73;30.00;;;;;;;5.09;86.34;98511.91;6219180;28;20192;-68
2021/11/16 06:25:13;;;;;;;45.50;28.00;;;;;;;5.09;85.75;98509.28;6219712;28;20188;-68
2021/11/16 06:28:15;;;;;;;43.60;28.70;;;;;;;5.07;85.34;98504.13;6219379;28;20192;-67
2021/11/16 06:31:23;;;;;;;43.17;28.77;;;;;;;5.09;86.04;98506.66;6217836;28;20216;-68
2021/11/16 06:34:27;;;;;;;45.43;30.10;;;;;;;5.13;85.45;98506.44;6219422;28;20193;-68
2021/11/16 06:37:29;;;;;;;45.17;28.57;;;;;;;5.14;85.36;98515.13;6217668;28;20201;-68
2021/11/16 06:40:32;;;;;;;43.83;28.93;;;;;;;5.13;85.22;98511.69;6217692;28;20588;-68
2021/11/16 06:43:36;;;;;;;42.97;28.53;;;;;;;5.14;84.66;98510.75;6218923;28;20193;-68
2021/11/16 06:46:39;;;;;;;47.07;29.67;;;;;;;5.16;84.82;98513.31;6208006;28;20251;-67
2021/11/16 06:49:47;;;;;;;40.13;26.83;;;;;;;5.16;84.87;98503.69;6218984;28;20395;-68
2021/11/16 06:52:49;;;;;;;41.03;27.03;;;;;;;5.22;84.59;98499.09;6218659;28;20644;-68
2021/11/16 06:55:52;;;;;;;41.60;28.20;;;;;;;5.22;84.23;98507.78;6217754;28;20719;-68
2021/11/16 06:58:54;;;;;;;46.07;28.80;;;;;;;5.27;84.31;98507.59;6217725;28;20216;-67
2021/11/16 07:01:56;;;;;;;43.50;27.13;;;;;;;5.34;84.78;98506.38;6217280;28;20255;-67
2021/11/16 07:04:58;;;;;;;39.57;26.83;;;;;;;5.36;83.60;98513.25;6218824;28;20192;-68
2021/11/16 07:08:01;;;;;;;38.17;26.77;;;;;;;5.44;83.88;98508.50;6218985;28;20687;-68
2021/11/16 07:11:19;;;;;;;41.23;27.77;;;;;;;5.50;83.13;98516.06;6217708;28;20199;-68
2021/11/16 07:14:30;;;;;;;40.57;26.70;;;;;;;5.51;83.89;98512.53;6218794;28;20328;-68
2021/11/16 07:17:32;;;;;;;41.33;28.30;;;;;;;5.51;83.25;98511.69;6199999;28;20331;-67
2021/11/16 07:20:34;;;;;;;43.40;26.30;;;;;;;5.54;82.72;98516.78;6217179;28;20274;-67
2021/11/16 07:23:36;;;;;;;40.60;25.47;;;;;;;5.58;82.08;98507.88;6218519;28;20271;-67
2021/11/16 07:26:41;;;;;;;38.10;25.27;;;;;;;5.62;82.81;98513.78;6218844;28;20267;-67
2021/11/16 07:29:49;;;;;;;35.53;24.60;;;;;;;5.69;82.15;98523.09;6218423;28;20212;-67
2021/11/16 07:33:00;;;;;;;31.57;22.80;;;;;;;5.76;82.14;98530.56;6217072;28;20204;-68
2021/11/16 07:36:08;;;;;;;32.53;22.33;;;;;;;5.81;81.57;98533.81;6217107;28;20201;-68
2021/11/16 07:39:10;;;;;;;34.67;22.33;;;;;;;5.85;80.61;98529.28;6218382;28;20204;-67
2021/11/16 07:42:12;;;;;;;33.57;22.40;;;;;;;5.90;80.64;98530.78;6218168;28;20564;-69
2021/11/16 07:45:18;;;;;;;33.77;21.77;;;;;;;5.96;80.60;98527.03;6211063;28;20234;-67
2021/11/16 07:48:23;;;;;;;27.23;19.47;;;;;;;6.12;80.28;98527.97;6197950;28;20267;-67
2021/11/16 07:51:26;;;;;;;28.93;21.33;;;;;;;6.15;79.24;98522.59;6219717;28;20223;-67
2021/11/16 07:54:30;;;;;;;32.40;20.33;;;;;;;6.22;79.42;98520.50;6223008;28;20676;-67
2021/11/16 07:57:43;;;;;;;27.37;19.50;;;;;;;6.34;79.19;98519.91;6221603;28;20302;-67
2021/11/16 08:00:48;;;;;;;28.67;19.43;;;;;;;6.44;78.90;98515.91;6221432;28;20284;-69
2021/11/16 08:04:06;;;;;;;27.30;20.47;;;;;;;6.40;78.38;98510.88;6222429;28;20685;-66
2021/11/16 08:10:28;;;;;;;22.97;16.80;;;;;;;6.48;77.53;98500.88;6222373;28;20561;-68
2021/11/16 08:13:33;;;;;;;24.07;17.30;;;;;;;6.54;77.37;98503.19;6222383;28;20291;-67
2021/11/16 08:16:48;;;;;;;21.83;16.03;;;;;;;6.56;76.74;98510.03;6214560;28;20204;-66
2021/11/16 08:19:59;;;;;;;19.17;14.33;;;;;;;6.64;76.72;98512.28;6222318;28;20862;-67
2021/11/16 08:23:05;;;;;;;21.30;15.13;;;;;;;6.68;76.74;98508.56;6222189;28;20669;-67
2021/11/16 08:26:08;;;;;;;19.93;15.23;;;;;;;6.83;76.30;98504.28;6222203;28;20611;-66
2021/11/16 08:29:12;;;;;;;26.83;16.73;;;;;;;6.92;75.46;98502.03;6222048;28;20263;-66
2021/11/16 08:32:21;;;;;;;25.23;17.00;;;;;;;7.08;75.14;98517.00;6220820;28;20201;-67
2021/11/16 08:35:24;;;;;;;21.03;14.87;;;;;;;7.15;74.67;98527.09;6221991;28;20982;-67
2021/11/16 08:38:32;;;;;;;22.70;16.00;;;;;;;7.06;74.85;98518.84;6219459;28;20302;-69
2021/11/16 08:41:37;;;;;;;22.77;16.53;;;;;;;7.02;75.48;98518.16;6190021;28;20653;-67
2021/11/16 08:44:47;;;;;;;25.20;17.90;;;;;;;6.99;75.29;98507.81;6217715;28;20611;-67
2021/11/16 08:47:53;;;;;;;20.77;16.10;;;;;;;7.10;74.59;98510.72;6208235;28;20204;-66
2021/11/16 08:50:59;;;;;;;24.00;16.77;;;;;;;7.03;74.51;98504.09;6203035;28;20220;-66
2021/11/16 08:54:01;;;;;;;23.17;16.77;;;;;;;7.08;74.83;98512.59;6219254;28;20199;-66
2021/11/16 08:57:24;;;;;;;22.43;16.80;;;;;;;7.07;74.87;98504.81;6220931;28;20188;-66
2021/11/16 09:00:36;;;;;;;20.07;15.33;;;;;;;7.10;75.14;98502.84;6219510;28;20220;-67
2021/11/16 09:03:46;;;;;;;22.13;16.10;;;;;;;7.23;74.94;98503.03;6220375;28;20202;-66
2021/11/16 09:06:51;;;;;;;23.13;15.30;;;;;;;7.32;75.00;98507.78;6195602;28;20191;-68
2021/11/16 09:10:00;;;;;;;24.30;16.07;;;;;;;7.43;74.51;98515.94;6209824;28;20338;-69
2021/11/16 09:13:05;;;;;;;21.37;14.97;;;;;;;7.50;74.75;98508.56;6216706;28;20658;-68
2021/11/16 09:16:12;;;;;;;23.43;16.27;;;;;;;7.46;73.89;98504.44;6206412;28;20677;-67
2021/11/16 09:19:29;;;;;;;21.87;15.43;;;;;;;7.51;73.54;98497.97;6209694;28;20211;-65
2021/11/16 09:22:36;;;;;;;20.37;14.93;;;;;;;7.49;73.85;98491.97;6221108;28;20203;-66
2021/11/16 09:25:39;;;;;;;18.70;14.43;;;;;;;7.59;73.80;98494.94;6219172;28;20269;-68
2021/11/16 09:28:47;;;;;;;19.20;14.27;;;;;;;7.60;74.06;98484.34;6220945;28;20264;-66
2021/11/16 09:32:05;;;;;;;18.33;14.23;;;;;;;7.67;73.65;98477.00;6219356;28;20211;-66
2021/11/16 09:35:07;;;;;;;24.20;14.80;;;;;;;7.66;73.56;98484.03;6220706;28;20203;-67
2021/11/16 09:38:09;;;;;;;19.03;15.13;;;;;;;7.69;73.41;98473.31;6220177;28;20423;-66
2021/11/16 09:41:16;;;;;;;19.37;14.23;;;;;;;7.72;73.41;98482.81;6217447;28;20195;-66
2021/11/16 09:44:30;;;;;;;17.90;13.73;;;;;;;7.88;73.58;98473.16;6219055;28;20227;-66
2021/11/16 09:47:35;;;;;;;18.37;13.10;;;;;;;8.02;72.40;98475.81;6220024;28;20196;-67
2021/11/16 09:50:38;;;;;;;16.80;12.20;;;;;;;8.16;71.44;98467.16;6220245;28;20223;-66
2021/11/16 09:53:41;;;;;;;11.20;10.00;;;;;;;8.32;71.01;98472.38;6219252;28;20272;-67
2021/11/16 09:56:44;;;;;;;13.90;9.20;;;;;;;8.43;70.75;98456.81;6220175;28;20190;-67
2021/11/16 09:59:48;;;;;;;11.67;9.03;;;;;;;8.47;68.33;98464.47;6218640;28;20229;-68
2021/11/16 10:03:22;;;;;;;11.37;9.10;;;;;;;8.51;66.30;98455.44;6218969;28;20191;-67
2021/11/16 10:06:25;;;;;;;12.10;8.33;;;;;;;8.57;66.13;98446.34;6212612;28;20259;-67
2021/11/16 10:09:27;;;;;;;11.33;8.90;;;;;;;8.58;66.54;98442.78;6217983;28;20198;-67
2021/11/16 10:12:47;;;;;;;11.10;8.77;;;;;;;8.68;66.17;98446.56;6219272;28;20222;-67
2021/11/16 10:15:52;;;;;;;11.90;8.67;;;;;;;8.78;65.68;98437.13;6205496;28;20221;-67
2021/11/16 10:18:54;;;;;;;8.77;7.53;;;;;;;8.95;65.16;98432.63;6218754;28;20287;-67
2021/11/16 10:21:57;;;;;;;9.40;8.37;;;;;;;8.84;64.51;98431.50;6218895;28;20194;-66
2021/11/16 10:25:33;;;;;;;9.77;8.10;;;;;;;8.94;64.04;98428.31;6219098;28;20680;-66
2021/11/16 10:28:38;;;;;;;11.47;8.93;;;;;;;8.89;64.03;98416.25;6120289;29;20333;-66
2021/11/16 10:31:40;;;;;;;14.13;8.70;;;;;;;8.95;63.53;98407.16;6118971;29;20258;-66
2021/11/16 10:34:42;;;;;;;11.73;9.30;;;;;;;8.94;62.58;98400.19;6104366;29;20202;-66
2021/11/16 10:37:58;;;;;;;12.87;9.43;;;;;;;9.03;63.06;98404.03;6119841;29;20215;-66
2021/11/16 10:41:04;;;;;;;13.07;9.17;;;;;;;9.15;63.36;98406.75;6119715;29;20241;-69
2021/11/16 10:44:09;;;;;;;12.10;8.80;;;;;;;9.22;62.20;98394.88;6119890;29;20321;-68
2021/11/16 10:47:12;;;;;;;12.27;9.47;;;;;;;9.37;62.65;98395.72;6098697;29;20217;-67
2021/11/16 10:50:24;;;;;;;11.17;8.93;;;;;;;9.55;62.10;98394.53;6103851;29;20200;-66
2021/11/16 10:53:26;;;;;;;12.07;8.77;;;;;;;9.59;61.60;98381.97;6118952;29;20207;-68
2021/11/16 10:56:33;;;;;;;10.47;8.37;;;;;;;9.52;59.70;98372.78;6104084;29;20221;-67
2021/11/16 10:59:38;;;;;;;11.07;8.20;;;;;;;9.58;61.13;98377.69;6119177;29;20203;-66
2021/11/16 11:02:40;;;;;;;9.93;7.90;;;;;;;9.73;60.60;98370.53;6134687;28;20202;-67
2021/11/16 11:05:47;;;;;;;10.87;8.23;;;;;;;9.75;58.92;98373.94;6206657;28;20196;-67
2021/11/16 11:09:05;;;;;;;9.77;7.93;;;;;;;9.75;58.69;98358.13;6218632;28;20655;-66
2021/11/16 11:12:29;;;;;;;10.43;7.80;;;;;;;9.99;58.36;98361.75;6218121;28;20766;-67
2021/11/16 11:15:33;;;;;;;8.97;7.63;;;;;;;10.15;57.73;98349.22;6216981;28;20568;-67
2021/11/16 11:18:38;;;;;;;9.87;7.60;;;;;;;10.19;56.93;98349.88;6218686;28;20196;-67
2021/11/16 11:21:52;;;;;;;10.53;7.43;;;;;;;10.00;57.45;98352.88;6217771;28;20675;-66
2021/11/16 11:28:40;;;;;;;11.30;7.30;;;;;;;9.87;56.31;98357.31;6205858;28;20676;-66
2021/11/16 11:31:44;;;;;;;8.83;7.63;;;;;;;9.84;54.27;98354.88;6222698;28;20185;-67
2021/11/16 11:34:52;;;;;;;10.40;7.50;;;;;;;9.71;55.77;98351.34;6223287;28;20204;-67
2021/11/16 11:38:18;;;;;;;9.57;7.23;;;;;;;9.85;56.68;98348.66;6223113;28;20557;-67
2021/11/16 11:41:24;;;;;;;8.90;7.37;;;;;;;9.89;56.38;98348.31;6222967;28;20208;-67
2021/11/16 11:44:29;;;;;;;8.77;7.47;;;;;;;9.73;56.08;98338.91;6221898;28;20656;-67
2021/11/16 11:47:32;;;;;;;7.97;7.17;;;;;;;9.75;56.27;98344.94;6214764;28;20197;-66
2021/11/16 11:50:44;;;;;;;9.73;7.70;;;;;;;9.49;56.42;98330.81;6222765;28;20196;-66
2021/11/16 11:53:46;;;;;;;8.97;6.50;;;;;;;9.54;56.76;98334.88;6222499;28;20203;-67
2021/11/16 11:56:50;;;;;;;9.90;6.87;;;;;;;9.67;56.41;98341.97;6223013;28;20692;-67
2021/11/16 11:59:54;;;;;;;10.00;7.10;;;;;;;9.78;56.03;98331.56;6221208;28;20208;-66
2021/11/16 12:02:56;;;;;;;7.50;6.50;;;;;;;9.62;55.89;98340.47;6222183;28;20205;-66
2021/11/16 12:05:59;;;;;;;10.73;6.97;;;;;;;9.37;55.70;98337.75;6222388;28;20187;-67
2021/11/16 12:09:01;;;;;;;12.43;7.53;;;;;;;9.24;55.69;98329.81;6222634;28;20251;-67
2021/11/16 12:12:03;;;;;;;8.27;7.13;;;;;;;9.36;56.00;98330.81;6221908;28;20288;-66
2021/11/16 12:15:09;;;;;;;8.70;6.93;;;;;;;9.55;55.87;98326.00;6216145;28;20213;-67
2021/11/16 12:18:12;;;;;;;12.43;6.70;;;;;;;9.72;55.58;98322.25;6210536;28;20279;-67
2021/11/16 12:21:44;;;;;;;7.93;6.50;;;;;;;9.77;55.04;98322.81;6221524;28;20216;-68
2021/11/16 12:24:47;;;;;;;10.03;6.80;;;;;;;9.72;55.36;98319.63;6222309;28;20207;-67
2021/11/16 12:27:49;;;;;;;7.73;6.30;;;;;;;9.63;54.27;98310.53;6222183;28;20678;-68
2021/11/16 12:30:51;;;;;;;9.57;6.70;;;;;;;9.73;55.72;98321.31;6221295;28;20231;-66
2021/11/16 12:33:57;;;;;;;10.10;6.13;;;;;;;9.84;54.92;98313.53;6221804;28;20220;-67
2021/11/16 12:37:00;;;;;;;8.30;6.13;;;;;;;9.75;54.93;98303.63;6221120;28;20633;-65
2021/11/16 12:40:11;;;;;;;9.07;6.13;;;;;;;9.74;54.95;98312.47;6221606;28;20274;-68
2021/11/16 12:43:20;;;;;;;8.37;6.20;;;;;;;9.64;55.77;98300.84;6221227;28;20327;-67
2021/11/16 12:46:24;;;;;;;10.90;6.80;;;;;;;9.63;56.59;98300.00;6205367;28;20229;-67
2021/11/16 12:49:33;;;;;;;8.60;6.73;;;;;;;9.53;55.92;98300.69;6211832;28;20357;-68
2021/11/16 12:53:02;;;;;;;9.63;7.20;;;;;;;9.46;56.02;98302.91;6219796;28;20588;-67
2021/11/16 12:56:04;;;;;;;7.63;6.13;;;;;;;9.39;56.16;98296.34;6218495;28;20211;-67
2021/11/16 12:59:22;;;;;;;8.23;6.60;;;;;;;9.33;57.23;98295.91;6221118;28;20216;-67
2021/11/16 13:02:31;;;;;;;7.47;5.90;;;;;;;9.35;56.95;98294.03;6221089;28;20657;-66
2021/11/16 13:05:37;;;;;;;8.90;6.73;;;;;;;9.23;57.27;98296.50;6220807;28;20319;-67
2021/11/16 13:08:39;;;;;;;10.73;7.20;;;;;;;9.20;57.11;98307.22;6220137;28;20725;-66
2021/11/16 13:11:54;;;;;;;8.93;6.50;;;;;;;9.13;57.11;98294.56;6220593;28;20196;-66
2021/11/16 13:14:56;;;;;;;8.93;6.43;;;;;;;9.07;57.46;98294.97;6216094;28;20621;-66
2021/11/16 13:18:04;;;;;;;8.57;6.80;;;;;;;9.01;56.91;98300.63;6220223;28;20282;-67
2021/11/16 13:21:06;;;;;;;10.00;6.13;;;;;;;8.93;57.23;98297.63;6220454;28;20692;-68
2021/11/16 13:24:11;;;;;;;12.03;7.20;;;;;;;8.89;57.44;98289.91;6220750;28;20236;-68
2021/11/16 13:27:14;;;;;;;9.60;6.87;;;;;;;8.83;57.72;98284.22;6220372;28;20250;-66
2021/11/16 13:30:24;;;;;;;9.43;7.00;;;;;;;8.81;58.67;98281.66;6221022;28;20646;-66
2021/11/16 13:33:49;;;;;;;10.57;7.27;;;;;;;8.70;57.16;98283.28;6220246;28;20290;-66
2021/11/16 13:36:55;;;;;;;9.23;6.83;;;;;;;8.70;58.55;98283.28;6220025;28;20196;-67
2021/11/16 13:40:19;;;;;;;8.70;6.83;;;;;;;8.62;57.95;98281.16;6219179;28;20217;-66
2021/11/16 13:43:21;;;;;;;9.90;6.53;;;;;;;8.56;58.46;98281.53;6219852;28;20204;-66
2021/11/16 13:46:22;;;;;;;10.00;6.17;;;;;;;8.54;58.52;98274.69;6206717;28;20229;-69
2021/11/16 13:49:45;;;;;;;10.77;7.43;;;;;;;8.50;58.84;98266.97;6219002;28;20217;-67
2021/11/16 13:52:52;;;;;;;9.93;6.97;;;;;;;8.51;59.09;98267.81;6219704;28;20204;-66
2021/11/16 13:55:54;;;;;;;10.13;6.50;;;;;;;8.48;59.58;98265.41;6219939;28;20330;-66
2021/11/16 13:58:57;;;;;;;8.43;6.37;;;;;;;8.42;59.54;98260.50;6219730;28;20199;-66
2021/11/16 14:02:01;;;;;;;8.43;6.40;;;;;;;8.37;58.86;98252.06;6219454;28;20201;-67
2021/11/16 14:05:07;;;;;;;8.63;6.77;;;;;;;8.30;59.31;98255.97;6219322;28;20196;-66
2021/11/16 14:08:13;;;;;;;10.57;7.10;;;;;;;8.24;59.55;98258.97;6219910;28;20277;-67
2021/11/16 14:11:17;;;;;;;11.50;7.63;;;;;;;8.21;59.30;98260.00;6219670;28;20718;-65
2021/11/16 14:14:21;;;;;;;10.80;7.60;;;;;;;8.14;60.18;98261.34;6219137;28;20203;-67
2021/11/16 14:17:24;;;;;;;10.67;8.20;;;;;;;8.07;59.30;98245.09;6198408;28;20677;-66
2021/11/16 14:20:26;;;;;;;10.30;7.27;;;;;;;8.06;60.07;98250.44;6219355;28;20239;-68
2021/11/16 14:23:35;;;;;;;10.43;7.70;;;;;;;8.03;61.13;98255.88;6193600;28;20662;-66
2021/11/16 14:26:39;;;;;;;11.23;7.93;;;;;;;7.98;60.24;98244.81;6216396;28;20199;-66
2021/11/16 14:29:41;;;;;;;9.70;7.53;;;;;;;7.97;61.19;98243.13;6218229;28;20204;-66
2021/11/16 14:32:43;;;;;;;10.27;7.50;;;;;;;7.96;60.15;98238.81;6217902;28;20203;-67
2021/11/16 14:35:58;;;;;;;9.53;7.37;;;;;;;7.91;61.35;98232.97;6218526;28;20648;-69
2021/11/16 14:39:06;;;;;;;9.83;7.37;;;;;;;7.85;61.34;98234.19;6219181;28;20697;-67
2021/11/16 14:42:12;;;;;;;10.97;7.67;;;;;;;7.81;61.21;98230.06;6218441;28;20202;-67
2021/11/16 14:45:15;;;;;;;11.07;7.93;;;;;;;7.76;60.96;98232.97;6217091;28;20309;-65
2021/11/16 14:48:27;;;;;;;13.67;8.60;;;;;;;7.68;62.09;98229.13;6218891;28;20553;-68